sensor_id;sensor_type;location;lat;lon;timestamp;pressure;altitude;pressure_sealevel;temperature;humidity
5812;BME280;2932;52.400;9.558;2023-12-20T00:01:19;100514.88;;;11.83;76.36
5812;BME280;2932;52.400;9.558;2023-12-20T00:03:45;100519.03;;;11.61;76.43
5812;BME280;2932;52.400;9.558;2023-12-20T00:06:10;100521.72;;;11.73;76.43
5812;BME280;2932;52.400;9.558;2023-12-20T00:08:36;100527.53;;;11.68;75.96
5812;BME280;2932;52.400;9.558;2023-12-20T00:11:01;100520.78;;;11.81;75.25
5812;BME280;2932;52.400;9.558;2023-12-20T00:13:26;100530.19;;;11.49;76.17
5812;BME280;2932;52.400;9.558;2023-12-20T00:15:52;100534.09;;;11.04;77.14
5812;BME280;2932;52.400;9.558;2023-12-20T00:18:17;100532.16;;;11.64;75.68
5812;BME280;2932;52.400;9.558;2023-12-20T00:20:42;100541.94;;;11.74;75.18
5812;BME280;2932;52.400;9.558;2023-12-20T00:23:08;100542.41;;;10.92;76.34
5812;BME280;2932;52.400;9.558;2023-12-20T00:25:34;100532.16;;;11.48;75.98
5812;BME280;2932;52.400;9.558;2023-12-20T00:28:00;100543.91;;;11.29;76.16
5812;BME280;2932;52.400;9.558;2023-12-20T00:30:25;100539.47;;;11.41;75.42
5812;BME280;2932;52.400;9.558;2023-12-20T00:32:50;100548.78;;;11.48;75.24
5812;BME280;2932;52.400;9.558;2023-12-20T00:35:16;100542.16;;;10.57;77.22
5812;BME280;2932;52.400;9.558;2023-12-20T00:37:44;100551.50;;;10.28;78.50
5812;BME280;2932;52.400;9.558;2023-12-20T00:40:10;100538.22;;;10.58;78.22
5812;BME280;2932;52.400;9.558;2023-12-20T00:42:36;100549.78;;;10.35;78.32
5812;BME280;2932;52.400;9.558;2023-12-20T00:45:01;100551.00;;;11.15;77.00
5812;BME280;2932;52.400;9.558;2023-12-20T00:47:27;100537.81;;;11.24;75.68
5812;BME280;2932;52.400;9.558;2023-12-20T00:49:52;100547.56;;;11.06;75.48
5812;BME280;2932;52.400;9.558;2023-12-20T00:52:18;100537.16;;;11.15;75.37
5812;BME280;2932;52.400;9.558;2023-12-20T00:54:44;100545.13;;;11.16;75.24
5812;BME280;2932;52.400;9.558;2023-12-20T00:57:10;100551.88;;;10.91;75.62
5812;BME280;2932;52.400;9.558;2023-12-20T00:59:35;100548.88;;;10.84;76.11
5812;BME280;2932;52.400;9.558;2023-12-20T01:02:01;100541.22;;;10.65;75.85
5812;BME280;2932;52.400;9.558;2023-12-20T01:04:27;100543.00;;;10.85;76.60
5812;BME280;2932;52.400;9.558;2023-12-20T01:06:52;100545.13;;;10.76;76.57
5812;BME280;2932;52.400;9.558;2023-12-20T01:09:18;100547.78;;;10.73;76.78
5812;BME280;2932;52.400;9.558;2023-12-20T01:11:44;100540.63;;;10.72;76.58
5812;BME280;2932;52.400;9.558;2023-12-20T01:14:09;100543.91;;;10.89;76.38
5812;BME280;2932;52.400;9.558;2023-12-20T01:16:34;100541.22;;;11.05;75.70
5812;BME280;2932;52.400;9.558;2023-12-20T01:19:00;100541.44;;;10.72;77.04
5812;BME280;2932;52.400;9.558;2023-12-20T01:21:25;100548.59;;;10.73;77.03
5812;BME280;2932;52.400;9.558;2023-12-20T01:23:50;100547.44;;;10.50;77.09
5812;BME280;2932;52.400;9.558;2023-12-20T01:26:16;100555.63;;;10.58;77.21
5812;BME280;2932;52.400;9.558;2023-12-20T01:28:42;100557.25;;;10.59;76.87
5812;BME280;2932;52.400;9.558;2023-12-20T01:31:08;100559.34;;;10.26;77.63
5812;BME280;2932;52.400;9.558;2023-12-20T01:33:33;100563.16;;;10.33;78.69
5812;BME280;2932;52.400;9.558;2023-12-20T01:35:58;100565.16;;;9.88;79.08
5812;BME280;2932;52.400;9.558;2023-12-20T01:38:24;100552.28;;;10.53;78.23
5812;BME280;2932;52.400;9.558;2023-12-20T01:40:52;100553.22;;;10.57;77.15
5812;BME280;2932;52.400;9.558;2023-12-20T01:43:17;100555.50;;;10.67;76.72
5812;BME280;2932;52.400;9.558;2023-12-20T01:45:42;100554.84;;;10.46;77.38
5812;BME280;2932;52.400;9.558;2023-12-20T01:48:08;100557.59;;;10.46;77.04
5812;BME280;2932;52.400;9.558;2023-12-20T01:50:36;100565.44;;;10.44;77.08
5812;BME280;2932;52.400;9.558;2023-12-20T01:53:03;100562.69;;;10.19;77.80
5812;BME280;2932;52.400;9.558;2023-12-20T01:55:32;100559.91;;;10.19;77.72
5812;BME280;2932;52.400;9.558;2023-12-20T01:57:59;100553.31;;;10.60;77.27
5812;BME280;2932;52.400;9.558;2023-12-20T02:00:26;100560.81;;;10.60;76.69
5812;BME280;2932;52.400;9.558;2023-12-20T02:02:53;100566.75;;;10.01;77.95
5812;BME280;2932;52.400;9.558;2023-12-20T02:05:21;100563.59;;;10.23;77.50
5812;BME280;2932;52.400;9.558;2023-12-20T02:07:46;100561.38;;;10.17;78.00
5812;BME280;2932;52.400;9.558;2023-12-20T02:10:11;100565.47;;;9.74;78.89
5812;BME280;2932;52.400;9.558;2023-12-20T02:12:38;100549.84;;;9.90;78.49
5812;BME280;2932;52.400;9.558;2023-12-20T02:15:04;100548.34;;;10.05;78.79
5812;BME280;2932;52.400;9.558;2023-12-20T02:17:31;100532.00;;;9.88;78.82
5812;BME280;2932;52.400;9.558;2023-12-20T02:19:56;100538.69;;;9.99;78.80
5812;BME280;2932;52.400;9.558;2023-12-20T02:22:22;100529.00;;;10.05;78.88
5812;BME280;2932;52.400;9.558;2023-12-20T02:24:47;100535.22;;;9.90;78.42
5812;BME280;2932;52.400;9.558;2023-12-20T02:27:12;100537.66;;;10.16;78.02
5812;BME280;2932;52.400;9.558;2023-12-20T02:29:38;100539.88;;;9.53;78.71
5812;BME280;2932;52.400;9.558;2023-12-20T02:32:03;100532.19;;;9.70;78.97
5812;BME280;2932;52.400;9.558;2023-12-20T02:34:29;100536.56;;;9.59;79.06
5812;BME280;2932;52.400;9.558;2023-12-20T02:36:54;100530.50;;;10.02;78.61
5812;BME280;2932;52.400;9.558;2023-12-20T02:39:22;100531.75;;;9.81;78.14
5812;BME280;2932;52.400;9.558;2023-12-20T02:41:48;100536.16;;;9.94;77.40
5812;BME280;2932;52.400;9.558;2023-12-20T02:44:14;100541.28;;;9.59;78.99
5812;BME280;2932;52.400;9.558;2023-12-20T02:46:39;100534.16;;;9.70;78.63
5812;BME280;2932;52.400;9.558;2023-12-20T02:49:05;100534.69;;;9.63;78.68
5812;BME280;2932;52.400;9.558;2023-12-20T02:51:30;100532.66;;;9.73;78.44
5812;BME280;2932;52.400;9.558;2023-12-20T02:53:56;100530.84;;;9.89;77.87
5812;BME280;2932;52.400;9.558;2023-12-20T02:56:21;100524.75;;;10.08;77.54
5812;BME280;2932;52.400;9.558;2023-12-20T02:58:46;100527.34;;;9.67;77.58
5812;BME280;2932;52.400;9.558;2023-12-20T03:01:12;100516.69;;;10.02;77.33
5812;BME280;2932;52.400;9.558;2023-12-20T03:03:40;100517.59;;;9.82;77.22
5812;BME280;2932;52.400;9.558;2023-12-20T03:06:05;100512.63;;;9.76;77.48
5812;BME280;2932;52.400;9.558;2023-12-20T03:08:30;100502.97;;;9.82;77.41
5812;BME280;2932;52.400;9.558;2023-12-20T03:10:56;100508.84;;;9.80;77.35
5812;BME280;2932;52.400;9.558;2023-12-20T03:13:21;100506.19;;;9.84;77.17
5812;BME280;2932;52.400;9.558;2023-12-20T03:15:46;100494.22;;;9.80;77.11
5812;BME280;2932;52.400;9.558;2023-12-20T03:18:12;100494.78;;;9.73;77.26
5812;BME280;2932;52.400;9.558;2023-12-20T03:20:37;100495.47;;;9.70;76.57
5812;BME280;2932;52.400;9.558;2023-12-20T03:23:03;100493.94;;;9.60;76.45
5812;BME280;2932;52.400;9.558;2023-12-20T03:25:28;100481.94;;;9.32;76.92
5812;BME280;2932;52.400;9.558;2023-12-20T03:27:54;100477.50;;;9.64;76.28
5812;BME280;2932;52.400;9.558;2023-12-20T03:30:19;100472.34;;;9.87;75.77
5812;BME280;2932;52.400;9.558;2023-12-20T03:32:46;100471.44;;;9.25;76.73
5812;BME280;2932;52.400;9.558;2023-12-20T03:35:12;100476.38;;;9.20;77.05
5812;BME280;2932;52.400;9.558;2023-12-20T03:37:37;100472.78;;;9.64;76.63
5812;BME280;2932;52.400;9.558;2023-12-20T03:40:03;100469.91;;;9.61;76.16
5812;BME280;2932;52.400;9.558;2023-12-20T03:42:28;100472.97;;;9.35;76.17
5812;BME280;2932;52.400;9.558;2023-12-20T03:44:53;100474.50;;;9.45;76.80
5812;BME280;2932;52.400;9.558;2023-12-20T03:47:19;100471.78;;;9.81;75.73
5812;BME280;2932;52.400;9.558;2023-12-20T03:49:44;100467.47;;;9.47;75.86
5812;BME280;2932;52.400;9.558;2023-12-20T03:52:09;100467.56;;;9.39;76.20
5812;BME280;2932;52.400;9.558;2023-12-20T03:54:35;100465.41;;;9.44;76.77
5812;BME280;2932;52.400;9.558;2023-12-20T03:57:01;100453.03;;;9.29;76.82
5812;BME280;2932;52.400;9.558;2023-12-20T03:59:26;100453.38;;;9.16;77.16
5812;BME280;2932;52.400;9.558;2023-12-20T04:01:51;100452.28;;;9.41;77.50
5812;BME280;2932;52.400;9.558;2023-12-20T04:04:17;100447.69;;;9.45;77.28
5812;BME280;2932;52.400;9.558;2023-12-20T04:06:42;100445.91;;;9.28;78.05
5812;BME280;2932;52.400;9.558;2023-12-20T04:09:08;100458.47;;;9.38;77.82
5812;BME280;2932;52.400;9.558;2023-12-20T04:11:37;100455.97;;;9.00;78.17
5812;BME280;2932;52.400;9.558;2023-12-20T04:14:02;100461.00;;;8.98;78.18
5812;BME280;2932;52.400;9.558;2023-12-20T04:16:27;100460.94;;;9.07;77.72
5812;BME280;2932;52.400;9.558;2023-12-20T04:18:53;100450.06;;;9.34;77.75
5812;BME280;2932;52.400;9.558;2023-12-20T04:21:18;100463.28;;;9.29;77.52
5812;BME280;2932;52.400;9.558;2023-12-20T04:23:43;100457.84;;;9.20;77.85
5812;BME280;2932;52.400;9.558;2023-12-20T04:26:09;100448.34;;;9.30;77.84
5812;BME280;2932;52.400;9.558;2023-12-20T04:28:37;100446.44;;;9.55;77.97
5812;BME280;2932;52.400;9.558;2023-12-20T04:31:02;100439.31;;;9.54;77.24
5812;BME280;2932;52.400;9.558;2023-12-20T04:33:28;100442.97;;;9.46;76.96
5812;BME280;2932;52.400;9.558;2023-12-20T04:35:53;100439.97;;;9.51;76.57
5812;BME280;2932;52.400;9.558;2023-12-20T04:38:18;100458.97;;;9.52;76.94
5812;BME280;2932;52.400;9.558;2023-12-20T04:40:44;100425.97;;;9.56;76.75
5812;BME280;2932;52.400;9.558;2023-12-20T04:43:13;100423.19;;;9.68;76.66
5812;BME280;2932;52.400;9.558;2023-12-20T04:45:38;100428.13;;;9.50;76.99
5812;BME280;2932;52.400;9.558;2023-12-20T04:48:04;100422.38;;;9.55;76.91
5812;BME280;2932;52.400;9.558;2023-12-20T04:50:29;100424.09;;;9.48;76.85
5812;BME280;2932;52.400;9.558;2023-12-20T04:52:55;100420.81;;;9.21;77.45
5812;BME280;2932;52.400;9.558;2023-12-20T04:55:20;100428.31;;;9.33;77.38
5812;BME280;2932;52.400;9.558;2023-12-20T04:57:45;100437.97;;;9.15;78.02
5812;BME280;2932;52.400;9.558;2023-12-20T05:00:11;100424.22;;;9.51;77.64
5812;BME280;2932;52.400;9.558;2023-12-20T05:02:37;100421.22;;;9.81;76.93
5812;BME280;2932;52.400;9.558;2023-12-20T05:05:03;100418.56;;;9.48;77.26
5812;BME280;2932;52.400;9.558;2023-12-20T05:07:28;100431.34;;;9.52;77.63
5812;BME280;2932;52.400;9.558;2023-12-20T05:09:53;100434.09;;;9.64;76.90
5812;BME280;2932;52.400;9.558;2023-12-20T05:12:19;100432.84;;;9.74;76.46
5812;BME280;2932;52.400;9.558;2023-12-20T05:14:45;100437.34;;;9.79;76.06
5812;BME280;2932;52.400;9.558;2023-12-20T05:17:11;100436.56;;;9.90;75.97
5812;BME280;2932;52.400;9.558;2023-12-20T05:19:36;100451.16;;;9.66;76.60
5812;BME280;2932;52.400;9.558;2023-12-20T05:22:02;100431.44;;;10.04;76.50
5812;BME280;2932;52.400;9.558;2023-12-20T05:24:27;100429.63;;;9.72;76.69
5812;BME280;2932;52.400;9.558;2023-12-20T05:26:53;100416.94;;;10.08;76.41
5812;BME280;2932;52.400;9.558;2023-12-20T05:29:18;100424.91;;;9.73;76.79
5812;BME280;2932;52.400;9.558;2023-12-20T05:31:43;100421.88;;;10.14;76.07
5812;BME280;2932;52.400;9.558;2023-12-20T05:34:09;100427.66;;;9.60;76.90
5812;BME280;2932;52.400;9.558;2023-12-20T05:36:36;100420.06;;;9.69;76.96
5812;BME280;2932;52.400;9.558;2023-12-20T05:39:01;100413.63;;;9.90;76.96
5812;BME280;2932;52.400;9.558;2023-12-20T05:41:26;100411.56;;;9.87;76.73
5812;BME280;2932;52.400;9.558;2023-12-20T05:43:52;100414.91;;;9.92;76.35
5812;BME280;2932;52.400;9.558;2023-12-20T05:46:17;100408.22;;;9.93;76.55
5812;BME280;2932;52.400;9.558;2023-12-20T05:48:42;100421.47;;;9.51;77.14
5812;BME280;2932;52.400;9.558;2023-12-20T05:51:11;100420.59;;;9.26;78.07
5812;BME280;2932;52.400;9.558;2023-12-20T05:53:36;100422.91;;;9.24;77.38
5812;BME280;2932;52.400;9.558;2023-12-20T05:56:02;100420.19;;;9.49;77.38
5812;BME280;2932;52.400;9.558;2023-12-20T05:58:27;100425.59;;;9.45;77.73
5812;BME280;2932;52.400;9.558;2023-12-20T06:00:52;100415.22;;;10.03;76.72
5812;BME280;2932;52.400;9.558;2023-12-20T06:03:18;100421.81;;;9.74;76.33
5812;BME280;2932;52.400;9.558;2023-12-20T06:05:43;100416.03;;;9.67;76.15
5812;BME280;2932;52.400;9.558;2023-12-20T06:08:08;100410.50;;;10.03;75.70
5812;BME280;2932;52.400;9.558;2023-12-20T06:10:34;100424.28;;;9.30;76.78
5812;BME280;2932;52.400;9.558;2023-12-20T06:12:59;100419.16;;;9.78;76.72
5812;BME280;2932;52.400;9.558;2023-12-20T06:15:25;100434.00;;;9.49;76.45
5812;BME280;2932;52.400;9.558;2023-12-20T06:17:51;100428.47;;;9.61;76.64
5812;BME280;2932;52.400;9.558;2023-12-20T06:20:16;100423.53;;;9.54;76.55
5812;BME280;2932;52.400;9.558;2023-12-20T06:22:42;100425.84;;;9.52;76.76
5812;BME280;2932;52.400;9.558;2023-12-20T06:25:07;100433.75;;;9.42;77.36
5812;BME280;2932;52.400;9.558;2023-12-20T06:27:33;100415.59;;;9.77;76.55
5812;BME280;2932;52.400;9.558;2023-12-20T06:29:58;100417.53;;;9.64;76.72
5812;BME280;2932;52.400;9.558;2023-12-20T06:32:24;100425.72;;;9.03;78.14
5812;BME280;2932;52.400;9.558;2023-12-20T06:34:50;100428.66;;;9.19;77.94
5812;BME280;2932;52.400;9.558;2023-12-20T06:37:15;100428.59;;;9.64;77.66
5812;BME280;2932;52.400;9.558;2023-12-20T06:39:40;100408.88;;;9.17;77.54
5812;BME280;2932;52.400;9.558;2023-12-20T06:42:06;100416.59;;;9.36;78.16
5812;BME280;2932;52.400;9.558;2023-12-20T06:44:31;100416.81;;;9.31;77.72
5812;BME280;2932;52.400;9.558;2023-12-20T06:46:57;100411.56;;;9.50;77.12
5812;BME280;2932;52.400;9.558;2023-12-20T06:49:23;100411.31;;;9.67;76.73
5812;BME280;2932;52.400;9.558;2023-12-20T06:51:48;100402.94;;;9.52;76.88
5812;BME280;2932;52.400;9.558;2023-12-20T06:54:13;100415.03;;;9.59;76.60
5812;BME280;2932;52.400;9.558;2023-12-20T06:56:38;100402.09;;;9.27;76.90
5812;BME280;2932;52.400;9.558;2023-12-20T06:59:04;100394.03;;;9.22;77.83
5812;BME280;2932;52.400;9.558;2023-12-20T07:01:29;100416.28;;;9.50;77.71
5812;BME280;2932;52.400;9.558;2023-12-20T07:03:54;100400.97;;;9.64;76.39
5812;BME280;2932;52.400;9.558;2023-12-20T07:06:20;100397.28;;;9.73;76.45
5812;BME280;2932;52.400;9.558;2023-12-20T07:08:45;100400.41;;;9.83;76.12
5812;BME280;2932;52.400;9.558;2023-12-20T07:11:11;100383.03;;;9.46;76.61
5812;BME280;2932;52.400;9.558;2023-12-20T07:13:36;100381.44;;;9.57;76.85
5812;BME280;2932;52.400;9.558;2023-12-20T07:16:02;100396.47;;;9.72;76.16
5812;BME280;2932;52.400;9.558;2023-12-20T07:18:28;100397.88;;;9.90;75.79
5812;BME280;2932;52.400;9.558;2023-12-20T07:20:53;100394.88;;;9.59;75.76
5812;BME280;2932;52.400;9.558;2023-12-20T07:23:19;100396.38;;;9.44;75.99
5812;BME280;2932;52.400;9.558;2023-12-20T07:25:45;100401.66;;;9.61;76.54
5812;BME280;2932;52.400;9.558;2023-12-20T07:28:11;100403.75;;;9.52;76.92
5812;BME280;2932;52.400;9.558;2023-12-20T07:30:36;100394.75;;;9.43;77.19
5812;BME280;2932;52.400;9.558;2023-12-20T07:33:01;100406.16;;;9.54;77.13
5812;BME280;2932;52.400;9.558;2023-12-20T07:35:27;100397.06;;;9.53;77.42
5812;BME280;2932;52.400;9.558;2023-12-20T07:37:53;100382.31;;;9.61;77.70
5812;BME280;2932;52.400;9.558;2023-12-20T07:40:18;100410.97;;;9.32;77.72
5812;BME280;2932;52.400;9.558;2023-12-20T07:42:44;100414.19;;;9.34;77.91
5812;BME280;2932;52.400;9.558;2023-12-20T07:45:09;100414.28;;;9.14;78.26
5812;BME280;2932;52.400;9.558;2023-12-20T07:47:36;100418.06;;;9.21;78.76
5812;BME280;2932;52.400;9.558;2023-12-20T07:50:01;100401.09;;;9.68;78.71
5812;BME280;2932;52.400;9.558;2023-12-20T07:52:28;100401.09;;;9.44;79.15
5812;BME280;2932;52.400;9.558;2023-12-20T07:54:54;100388.31;;;9.39;79.27
5812;BME280;2932;52.400;9.558;2023-12-20T07:57:19;100384.84;;;9.30;79.13
5812;BME280;2932;52.400;9.558;2023-12-20T07:59:45;100380.34;;;9.13;79.31
5812;BME280;2932;52.400;9.558;2023-12-20T08:02:10;100386.84;;;9.54;78.84
5812;BME280;2932;52.400;9.558;2023-12-20T08:04:35;100386.09;;;9.32;78.71
5812;BME280;2932;52.400;9.558;2023-12-20T08:07:01;100392.00;;;9.80;78.21
5812;BME280;2932;52.400;9.558;2023-12-20T08:09:26;100378.28;;;9.95;77.76
5812;BME280;2932;52.400;9.558;2023-12-20T08:11:54;100379.13;;;9.47;78.11
5812;BME280;2932;52.400;9.558;2023-12-20T08:14:20;100368.63;;;9.65;78.31
5812;BME280;2932;52.400;9.558;2023-12-20T08:16:45;100374.84;;;9.74;78.20
5812;BME280;2932;52.400;9.558;2023-12-20T08:19:11;100372.41;;;9.85;77.60
5812;BME280;2932;52.400;9.558;2023-12-20T08:21:40;100365.19;;;9.56;77.84
5812;BME280;2932;52.400;9.558;2023-12-20T08:24:06;100374.72;;;9.34;78.13
5812;BME280;2932;52.400;9.558;2023-12-20T08:26:32;100363.09;;;9.65;78.10
5812;BME280;2932;52.400;9.558;2023-12-20T08:28:58;100376.47;;;9.39;78.10
5812;BME280;2932;52.400;9.558;2023-12-20T08:31:23;100380.84;;;9.52;77.96
5812;BME280;2932;52.400;9.558;2023-12-20T08:33:49;100354.56;;;9.82;77.46
5812;BME280;2932;52.400;9.558;2023-12-20T08:36:15;100354.47;;;9.42;78.03
5812;BME280;2932;52.400;9.558;2023-12-20T08:38:43;100356.44;;;9.42;77.73
5812;BME280;2932;52.400;9.558;2023-12-20T08:41:08;100349.53;;;9.60;77.50
5812;BME280;2932;52.400;9.558;2023-12-20T08:43:34;100353.78;;;9.69;77.55
5812;BME280;2932;52.400;9.558;2023-12-20T08:46:00;100345.38;;;9.66;77.74
5812;BME280;2932;52.400;9.558;2023-12-20T08:48:26;100347.31;;;9.78;77.45
5812;BME280;2932;52.400;9.558;2023-12-20T08:50:51;100342.16;;;9.40;77.85
5812;BME280;2932;52.400;9.558;2023-12-20T08:53:18;100386.09;;;9.32;77.97
5812;BME280;2932;52.400;9.558;2023-12-20T08:55:43;100348.47;;;9.64;78.38
5812;BME280;2932;52.400;9.558;2023-12-20T08:58:08;100346.66;;;9.44;78.44
5812;BME280;2932;52.400;9.558;2023-12-20T09:00:34;100336.75;;;9.31;79.02
5812;BME280;2932;52.400;9.558;2023-12-20T09:03:00;100336.06;;;9.34;78.80
5812;BME280;2932;52.400;9.558;2023-12-20T09:05:26;100322.00;;;9.63;78.59
5812;BME280;2932;52.400;9.558;2023-12-20T09:07:51;100327.88;;;9.74;78.45
5812;BME280;2932;52.400;9.558;2023-12-20T09:10:16;100314.34;;;9.45;78.31
5812;BME280;2932;52.400;9.558;2023-12-20T09:12:47;100312.00;;;9.71;78.04
5812;BME280;2932;52.400;9.558;2023-12-20T09:15:12;100300.06;;;9.55;78.12
5812;BME280;2932;52.400;9.558;2023-12-20T09:17:38;100304.91;;;9.46;78.40
5812;BME280;2932;52.400;9.558;2023-12-20T09:20:05;100340.44;;;9.47;78.32
5812;BME280;2932;52.400;9.558;2023-12-20T09:22:33;100292.94;;;9.42;78.19
5812;BME280;2932;52.400;9.558;2023-12-20T09:24:59;100301.63;;;9.68;77.68
5812;BME280;2932;52.400;9.558;2023-12-20T09:27:24;100309.81;;;9.64;77.34
5812;BME280;2932;52.400;9.558;2023-12-20T09:29:49;100308.53;;;9.62;76.88
5812;BME280;2932;52.400;9.558;2023-12-20T09:32:15;100285.50;;;9.82;76.66
5812;BME280;2932;52.400;9.558;2023-12-20T09:34:40;100299.47;;;9.61;76.88
5812;BME280;2932;52.400;9.558;2023-12-20T09:37:07;100286.44;;;9.62;77.59
5812;BME280;2932;52.400;9.558;2023-12-20T09:39:33;100299.56;;;9.65;76.91
5812;BME280;2932;52.400;9.558;2023-12-20T09:42:05;100288.78;;;9.48;76.70
5812;BME280;2932;52.400;9.558;2023-12-20T09:44:31;100290.38;;;9.61;76.47
5812;BME280;2932;52.400;9.558;2023-12-20T09:46:58;100296.22;;;9.72;75.93
5812;BME280;2932;52.400;9.558;2023-12-20T09:49:25;100288.03;;;9.87;76.00
5812;BME280;2932;52.400;9.558;2023-12-20T09:51:53;100322.81;;;9.76;75.67
5812;BME280;2932;52.400;9.558;2023-12-20T09:54:19;100276.66;;;10.04;75.43
5812;BME280;2932;52.400;9.558;2023-12-20T09:56:45;100278.97;;;10.02;75.73
5812;BME280;2932;52.400;9.558;2023-12-20T09:59:11;100271.84;;;9.61;76.23
5812;BME280;2932;52.400;9.558;2023-12-20T10:01:38;100281.22;;;9.97;76.48
5812;BME280;2932;52.400;9.558;2023-12-20T10:04:12;100259.69;;;9.90;76.35
5812;BME280;2932;52.400;9.558;2023-12-20T10:06:42;100279.06;;;9.78;76.70
5812;BME280;2932;52.400;9.558;2023-12-20T10:09:08;100295.34;;;9.43;77.55
5812;BME280;2932;52.400;9.558;2023-12-20T10:11:35;100270.66;;;9.87;77.04
5812;BME280;2932;52.400;9.558;2023-12-20T10:14:02;100268.84;;;9.66;77.78
5812;BME280;2932;52.400;9.558;2023-12-20T10:16:28;100270.34;;;9.64;77.63
5812;BME280;2932;52.400;9.558;2023-12-20T10:18:55;100269.94;;;9.90;77.39
5812;BME280;2932;52.400;9.558;2023-12-20T10:21:22;100260.03;;;10.29;76.49
5812;BME280;2932;52.400;9.558;2023-12-20T10:23:48;100265.72;;;10.08;76.21
5812;BME280;2932;52.400;9.558;2023-12-20T10:26:21;100246.94;;;9.86;76.46
5812;BME280;2932;52.400;9.558;2023-12-20T10:28:51;100269.69;;;9.95;76.57
5812;BME280;2932;52.400;9.558;2023-12-20T10:33:52;100259.09;;;9.97;76.73
5812;BME280;2932;52.400;9.558;2023-12-20T10:36:17;100248.66;;;9.90;77.06
5812;BME280;2932;52.400;9.558;2023-12-20T10:38:43;100253.63;;;10.13;76.50
5812;BME280;2932;52.400;9.558;2023-12-20T10:41:09;100249.97;;;9.68;77.39
5812;BME280;2932;52.400;9.558;2023-12-20T10:43:36;100261.13;;;9.72;78.26
5812;BME280;2932;52.400;9.558;2023-12-20T10:46:03;100266.50;;;9.81;78.70
5812;BME280;2932;52.400;9.558;2023-12-20T10:48:30;100268.81;;;9.79;78.80
5812;BME280;2932;52.400;9.558;2023-12-20T10:50:56;100258.94;;;10.06;78.16
5812;BME280;2932;52.400;9.558;2023-12-20T10:53:21;100267.63;;;9.92;78.69
5812;BME280;2932;52.400;9.558;2023-12-20T10:55:47;100255.25;;;10.01;78.21
5812;BME280;2932;52.400;9.558;2023-12-20T10:58:16;100262.41;;;10.02;78.57
5812;BME280;2932;52.400;9.558;2023-12-20T11:00:45;100246.94;;;10.14;78.43
5812;BME280;2932;52.400;9.558;2023-12-20T11:03:13;100235.97;;;10.45;77.88
5812;BME280;2932;52.400;9.558;2023-12-20T11:05:46;100247.66;;;10.54;77.53
5812;BME280;2932;52.400;9.558;2023-12-20T11:08:22;100252.59;;;10.05;78.23
5812;BME280;2932;52.400;9.558;2023-12-20T11:10:59;100256.97;;;10.06;78.89
5812;BME280;2932;52.400;9.558;2023-12-20T11:13:59;100240.69;;;10.45;78.28
5812;BME280;2932;52.400;9.558;2023-12-20T11:16:26;100243.81;;;9.87;78.84
5812;BME280;2932;52.400;9.558;2023-12-20T11:18:52;100227.56;;;9.98;79.08
5812;BME280;2932;52.400;9.558;2023-12-20T11:21:17;100228.59;;;9.93;79.61
5812;BME280;2932;52.400;9.558;2023-12-20T11:23:43;100212.88;;;10.38;79.12
5812;BME280;2932;52.400;9.558;2023-12-20T11:26:08;100242.56;;;9.85;79.36
5812;BME280;2932;52.400;9.558;2023-12-20T11:28:33;100241.41;;;9.86;80.16
5812;BME280;2932;52.400;9.558;2023-12-20T11:31:01;100266.72;;;9.88;80.64
5812;BME280;2932;52.400;9.558;2023-12-20T11:35:58;100297.13;;;10.16;80.49
5812;BME280;2932;52.400;9.558;2023-12-20T11:38:25;100297.41;;;9.58;79.76
5812;BME280;2932;52.400;9.558;2023-12-20T11:40:50;100295.59;;;9.38;79.82
5812;BME280;2932;52.400;9.558;2023-12-20T11:43:39;100290.75;;;8.98;79.41
5812;BME280;2932;52.400;9.558;2023-12-20T11:46:08;100299.63;;;8.59;80.07
5812;BME280;2932;52.400;9.558;2023-12-20T11:48:36;100286.34;;;8.73;79.00
5812;BME280;2932;52.400;9.558;2023-12-20T11:51:02;100282.66;;;8.69;78.93
5812;BME280;2932;52.400;9.558;2023-12-20T11:53:29;100275.91;;;8.33;79.49
5812;BME280;2932;52.400;9.558;2023-12-20T11:55:56;100279.66;;;8.62;78.65
5812;BME280;2932;52.400;9.558;2023-12-20T11:58:21;100268.66;;;8.98;77.81
5812;BME280;2932;52.400;9.558;2023-12-20T12:00:49;100266.56;;;8.83;77.90
5812;BME280;2932;52.400;9.558;2023-12-20T12:03:15;100262.94;;;9.03;77.88
5812;BME280;2932;52.400;9.558;2023-12-20T12:05:41;100252.56;;;8.88;77.25
5812;BME280;2932;52.400;9.558;2023-12-20T12:08:06;100255.34;;;9.13;76.92
5812;BME280;2932;52.400;9.558;2023-12-20T12:10:32;100246.50;;;9.19;76.54
5812;BME280;2932;52.400;9.558;2023-12-20T12:12:58;100241.31;;;9.06;76.35
5812;BME280;2932;52.400;9.558;2023-12-20T12:15:25;100246.34;;;8.91;76.17
5812;BME280;2932;52.400;9.558;2023-12-20T12:17:56;100250.06;;;9.08;75.82
5812;BME280;2932;52.400;9.558;2023-12-20T12:20:22;100255.56;;;8.95;75.57
5812;BME280;2932;52.400;9.558;2023-12-20T12:23:09;100249.69;;;9.46;75.13
5812;BME280;2932;52.400;9.558;2023-12-20T12:25:35;100248.44;;;9.07;74.45
5812;BME280;2932;52.400;9.558;2023-12-20T12:28:02;100246.47;;;9.44;74.11
5812;BME280;2932;52.400;9.558;2023-12-20T12:30:27;100244.22;;;9.61;73.11
5812;BME280;2932;52.400;9.558;2023-12-20T12:32:53;100247.47;;;9.51;72.88
5812;BME280;2932;52.400;9.558;2023-12-20T12:35:19;100236.69;;;9.46;73.16
5812;BME280;2932;52.400;9.558;2023-12-20T12:37:45;100244.25;;;9.49;72.57
5812;BME280;2932;52.400;9.558;2023-12-20T12:40:15;100235.53;;;9.35;72.43
5812;BME280;2932;52.400;9.558;2023-12-20T12:42:42;100243.16;;;9.78;71.38
5812;BME280;2932;52.400;9.558;2023-12-20T12:45:09;100246.56;;;9.47;70.80
5812;BME280;2932;52.400;9.558;2023-12-20T12:47:34;100246.59;;;8.86;71.63
5812;BME280;2932;52.400;9.558;2023-12-20T12:50:00;100238.41;;;9.51;71.32
5812;BME280;2932;52.400;9.558;2023-12-20T12:52:26;100234.72;;;9.34;70.09
5812;BME280;2932;52.400;9.558;2023-12-20T12:54:52;100227.00;;;9.52;70.27
5812;BME280;2932;52.400;9.558;2023-12-20T12:57:18;100230.22;;;9.54;70.04
5812;BME280;2932;52.400;9.558;2023-12-20T12:59:44;100234.44;;;9.64;69.69
5812;BME280;2932;52.400;9.558;2023-12-20T13:02:11;100231.75;;;9.80;70.08
5812;BME280;2932;52.400;9.558;2023-12-20T13:04:36;100225.97;;;10.13;69.60
5812;BME280;2932;52.400;9.558;2023-12-20T13:07:02;100224.78;;;9.98;69.74
5812;BME280;2932;52.400;9.558;2023-12-20T13:09:27;100224.66;;;9.66;70.78
5812;BME280;2932;52.400;9.558;2023-12-20T13:11:53;100231.72;;;9.92;71.02
5812;BME280;2932;52.400;9.558;2023-12-20T13:14:18;100224.03;;;9.33;71.88
5812;BME280;2932;52.400;9.558;2023-12-20T13:16:43;100231.38;;;9.53;71.80
5812;BME280;2932;52.400;9.558;2023-12-20T13:19:10;100230.38;;;9.74;71.82